» Metar & Tafor

16 November 2020
METAR
Pukul : 01.00 UTC
Isi :

METAR WAGI 210100Z 32003KT CAVOK 27/23 Q1011 NOSIG=


10 Juni 2019
TAFOR
Pukul : 06 - 18 UTC
Isi :

TAF WAGI 200500Z 2006/2018 18005KT 8000 BKN011 TEMPO 2007/2011 3000 -TSRA=


Hal: << First | < Prev | 1 | Next > | Last >>